Time;durP1;ratioP1;P1;durP2;ratioP2;P2;SDS_P1;SDS_P2;PMS_P1;PMS_P2;Temp;Humidity;BMP_temperature;BMP_pressure;BME280_temperature;BME280_humidity;BME280_pressure;Samples;Min_cycle;Max_cycle;Signal;HPM_P1;HPM_P2
2021/10/20 00:01:01;;;;;;;12.23;7.07;;;;;;;;;;768321;182;919222;-64
2021/10/20 00:03:27;;;;;;;12.57;8.50;;;;;;;;;;766275;182;995039;-64
2021/10/20 00:05:53;;;;;;;11.60;8.17;;;;;;;;;;770849;181;915643;-64
2021/10/20 00:08:18;;;;;;;12.53;8.63;;;;;;;;;;767115;181;915575;-64
2021/10/20 00:10:44;;;;;;;9.80;7.10;;;;;;;;;;774116;182;915979;-63
2021/10/20 00:13:10;;;;;;;9.83;8.13;;;;;;;;;;768717;180;921040;-64
2021/10/20 00:15:36;;;;;;;11.97;8.80;;;;;;;;;;767708;182;1013239;-63
2021/10/20 00:18:02;;;;;;;16.23;8.23;;;;;;;;;;767723;182;916510;-63
2021/10/20 00:20:28;;;;;;;10.77;8.30;;;;;;;;;;764186;182;915190;-63
2021/10/20 00:22:54;;;;;;;10.83;7.43;;;;;;;;;;767252;182;919672;-63
2021/10/20 00:25:19;;;;;;;12.30;9.17;;;;;;;;;;774924;180;916616;-63
2021/10/20 00:27:45;;;;;;;12.63;7.67;;;;;;;;;;767075;182;926026;-62
2021/10/20 00:30:11;;;;;;;11.17;8.17;;;;;;;;;;764793;182;919781;-63
2021/10/20 00:32:37;;;;;;;11.98;7.75;;;;;;;;;;770045;182;912551;-63
2021/10/20 00:35:03;;;;;;;11.27;8.80;;;;;;;;;;774495;182;908110;-63
2021/10/20 00:37:29;;;;;;;11.50;8.43;;;;;;;;;;762101;182;921094;-63
2021/10/20 00:39:55;;;;;;;16.83;10.70;;;;;;;;;;769164;182;919444;-63
2021/10/20 00:42:23;;;;;;;14.73;8.60;;;;;;;;;;768541;182;914972;-63
2021/10/20 00:44:47;;;;;;;11.60;8.57;;;;;;;;;;765364;182;918395;-64
2021/10/20 00:47:13;;;;;;;11.90;8.10;;;;;;;;;;767117;182;909847;-63
2021/10/20 00:49:39;;;;;;;12.33;7.87;;;;;;;;;;773845;182;920746;-63
2021/10/20 00:52:05;;;;;;;13.83;8.40;;;;;;;;;;769241;182;916187;-63
2021/10/20 00:54:31;;;;;;;16.00;8.20;;;;;;;;;;768892;182;916250;-63
2021/10/20 00:56:57;;;;;;;14.50;8.60;;;;;;;;;;769503;182;920168;-63
2021/10/20 00:59:23;;;;;;;10.80;7.97;;;;;;;;;;773794;182;916339;-63
2021/10/20 01:01:48;;;;;;;14.10;9.43;;;;;;;;;;768757;182;919503;-63
2021/10/20 01:04:14;;;;;;;14.13;8.93;;;;;;;;;;762669;182;920044;-63
2021/10/20 01:06:41;;;;;;;12.43;8.20;;;;;;;;;;770792;182;919790;-64
2021/10/20 01:09:06;;;;;;;11.93;8.73;;;;;;;;;;766073;182;919463;-64
2021/10/20 01:11:32;;;;;;;11.50;8.70;;;;;;;;;;769017;182;919390;-63
2021/10/20 01:13:58;;;;;;;11.33;8.20;;;;;;;;;;774676;182;919718;-63
2021/10/20 01:16:23;;;;;;;12.30;9.43;;;;;;;;;;768367;180;919709;-63
2021/10/20 01:18:49;;;;;;;13.32;8.35;;;;;;;;;;770109;182;919445;-63
2021/10/20 01:21:18;;;;;;;13.85;9.20;;;;;;;;;;771535;182;916158;-63
2021/10/20 01:23:44;;;;;;;13.87;9.80;;;;;;;;;;774152;182;915910;-62
2021/10/20 01:26:10;;;;;;;12.33;8.97;;;;;;;;;;770374;182;915469;-63
2021/10/20 01:28:35;;;;;;;11.98;9.70;;;;;;;;;;762546;182;1026111;-63
2021/10/20 01:31:01;;;;;;;14.87;8.23;;;;;;;;;;775170;179;938620;-63
2021/10/20 01:33:27;;;;;;;12.63;10.10;;;;;;;;;;766672;182;919832;-63
2021/10/20 01:35:53;;;;;;;13.57;9.00;;;;;;;;;;767946;182;918882;-63
2021/10/20 01:38:19;;;;;;;14.00;9.53;;;;;;;;;;775453;182;919741;-63
2021/10/20 01:40:45;;;;;;;12.50;9.20;;;;;;;;;;765824;182;1019680;-63
2021/10/20 01:43:10;;;;;;;13.77;9.50;;;;;;;;;;766074;182;919781;-63
2021/10/20 01:45:36;;;;;;;16.17;8.90;;;;;;;;;;769213;182;921599;-62
2021/10/20 01:48:02;;;;;;;13.63;9.23;;;;;;;;;;775235;180;920029;-64
2021/10/20 01:50:28;;;;;;;17.20;8.00;;;;;;;;;;766053;182;919511;-62
2021/10/20 01:52:54;;;;;;;12.27;8.50;;;;;;;;;;766619;182;919406;-64
2021/10/20 01:55:20;;;;;;;24.17;10.60;;;;;;;;;;774876;182;918813;-63
2021/10/20 01:57:46;;;;;;;12.55;7.85;;;;;;;;;;767358;182;946670;-63
2021/10/20 02:00:12;;;;;;;10.10;7.23;;;;;;;;;;762342;182;919990;-63
2021/10/20 02:02:38;;;;;;;12.10;8.13;;;;;;;;;;772242;182;919678;-65
2021/10/20 02:05:03;;;;;;;11.13;8.70;;;;;;;;;;761662;182;918819;-63
2021/10/20 02:07:29;;;;;;;15.57;8.53;;;;;;;;;;767328;182;919638;-63
2021/10/20 02:09:55;;;;;;;14.40;7.23;;;;;;;;;;774260;182;919396;-63
2021/10/20 02:12:21;;;;;;;11.20;8.43;;;;;;;;;;768187;182;920461;-62
2021/10/20 02:14:47;;;;;;;11.43;7.73;;;;;;;;;;767052;182;920671;-62
2021/10/20 02:17:13;;;;;;;9.15;7.20;;;;;;;;;;765010;182;919362;-63
2021/10/20 02:19:38;;;;;;;10.60;7.00;;;;;;;;;;767261;182;920410;-63
2021/10/20 02:22:04;;;;;;;13.13;7.53;;;;;;;;;;766319;182;918756;-63
2021/10/20 02:24:30;;;;;;;14.23;6.77;;;;;;;;;;768240;182;1021776;-63
2021/10/20 02:26:56;;;;;;;10.53;7.50;;;;;;;;;;764646;182;918627;-63
2021/10/20 02:29:22;;;;;;;10.30;7.87;;;;;;;;;;769140;181;921521;-63
2021/10/20 02:31:48;;;;;;;12.10;7.47;;;;;;;;;;771331;181;919968;-63
2021/10/20 02:34:14;;;;;;;11.20;8.40;;;;;;;;;;772933;182;919113;-63
2021/10/20 02:36:40;;;;;;;11.93;7.57;;;;;;;;;;767638;182;919711;-63
2021/10/20 02:39:06;;;;;;;11.97;7.63;;;;;;;;;;768632;182;920440;-62
2021/10/20 02:41:32;;;;;;;12.30;8.00;;;;;;;;;;762603;182;919815;-63
2021/10/20 02:43:58;;;;;;;11.27;8.10;;;;;;;;;;773452;182;920125;-65
2021/10/20 02:46:23;;;;;;;12.80;7.80;;;;;;;;;;768801;182;915636;-63
2021/10/20 02:48:49;;;;;;;10.60;7.27;;;;;;;;;;766125;182;916189;-63
2021/10/20 02:51:15;;;;;;;13.03;6.73;;;;;;;;;;774872;182;915472;-63
2021/10/20 02:53:41;;;;;;;10.77;7.33;;;;;;;;;;769599;182;919822;-63
2021/10/20 02:56:07;;;;;;;15.03;7.87;;;;;;;;;;770086;182;920425;-63
2021/10/20 02:58:33;;;;;;;9.23;6.20;;;;;;;;;;774236;182;919848;-63
2021/10/20 03:00:58;;;;;;;9.80;7.50;;;;;;;;;;768042;182;919811;-63
2021/10/20 03:03:24;;;;;;;10.17;6.97;;;;;;;;;;766675;182;918764;-63
2021/10/20 03:05:50;;;;;;;10.23;6.73;;;;;;;;;;767493;182;919028;-62
2021/10/20 03:08:16;;;;;;;8.90;7.00;;;;;;;;;;777019;180;920279;-63
2021/10/20 03:10:42;;;;;;;9.87;6.30;;;;;;;;;;766375;180;919604;-63
2021/10/20 03:13:08;;;;;;;7.93;6.17;;;;;;;;;;768296;182;920771;-63
2021/10/20 03:15:34;;;;;;;8.27;6.00;;;;;;;;;;772756;182;918365;-63
2021/10/20 03:17:59;;;;;;;12.90;6.50;;;;;;;;;;765844;182;919273;-62
2021/10/20 03:20:26;;;;;;;8.87;6.40;;;;;;;;;;765934;182;944734;-63
2021/10/20 03:22:52;;;;;;;8.07;6.22;;;;;;;;;;769255;182;920911;-63
2021/10/20 03:25:18;;;;;;;12.60;7.70;;;;;;;;;;764344;182;920647;-63
2021/10/20 03:27:43;;;;;;;10.00;7.27;;;;;;;;;;766030;182;920833;-63
2021/10/20 03:30:10;;;;;;;8.13;6.27;;;;;;;;;;773233;182;919334;-63
2021/10/20 03:32:35;;;;;;;12.10;6.93;;;;;;;;;;767649;182;920707;-63
2021/10/20 03:35:01;;;;;;;8.77;6.80;;;;;;;;;;766120;182;920240;-63
2021/10/20 03:37:27;;;;;;;9.87;6.90;;;;;;;;;;767467;182;916613;-63
2021/10/20 03:39:53;;;;;;;10.10;8.17;;;;;;;;;;775249;180;919082;-63
2021/10/20 03:42:19;;;;;;;12.35;8.10;;;;;;;;;;769473;182;921241;-63
2021/10/20 03:44:45;;;;;;;11.90;8.20;;;;;;;;;;765870;182;919038;-63
2021/10/20 03:47:10;;;;;;;12.37;7.53;;;;;;;;;;772786;182;920642;-63
2021/10/20 03:49:36;;;;;;;9.47;7.87;;;;;;;;;;770757;182;956069;-62
2021/10/20 03:52:02;;;;;;;10.13;8.40;;;;;;;;;;766723;182;919574;-63
2021/10/20 03:54:28;;;;;;;14.40;9.87;;;;;;;;;;770004;182;1632867;-63
2021/10/20 03:56:54;;;;;;;11.70;8.60;;;;;;;;;;768402;182;920017;-63
2021/10/20 03:59:20;;;;;;;10.97;9.20;;;;;;;;;;768548;182;919605;-63
2021/10/20 04:01:46;;;;;;;11.33;8.23;;;;;;;;;;767644;182;911542;-63
2021/10/20 04:04:11;;;;;;;10.87;8.27;;;;;;;;;;771939;182;911674;-63
2021/10/20 04:06:38;;;;;;;10.53;7.50;;;;;;;;;;766579;182;919769;-65
2021/10/20 04:09:04;;;;;;;19.90;9.60;;;;;;;;;;768677;182;944493;-63
2021/10/20 04:11:29;;;;;;;12.40;8.25;;;;;;;;;;769715;182;919162;-62
2021/10/20 04:13:55;;;;;;;9.87;8.50;;;;;;;;;;767541;182;920541;-63
2021/10/20 04:16:21;;;;;;;11.13;8.10;;;;;;;;;;767110;182;920497;-63
2021/10/20 04:18:47;;;;;;;11.07;8.20;;;;;;;;;;771578;182;916691;-66
2021/10/20 04:21:12;;;;;;;9.43;7.83;;;;;;;;;;763335;182;1644048;-65
2021/10/20 04:23:38;;;;;;;11.63;8.57;;;;;;;;;;768192;182;919351;-66
2021/10/20 04:26:04;;;;;;;10.13;8.50;;;;;;;;;;771380;182;866729;-62
2021/10/20 04:28:30;;;;;;;13.83;9.70;;;;;;;;;;774485;183;636621;-63
2021/10/20 04:30:56;;;;;;;16.20;10.70;;;;;;;;;;762652;182;918931;-63
2021/10/20 04:33:22;;;;;;;13.43;8.80;;;;;;;;;;764556;182;918807;-62
2021/10/20 04:35:48;;;;;;;11.30;9.30;;;;;;;;;;772305;182;919461;-63
2021/10/20 04:38:13;;;;;;;11.20;8.60;;;;;;;;;;772456;182;636866;-63
2021/10/20 04:40:39;;;;;;;14.18;8.05;;;;;;;;;;766899;182;918595;-63
2021/10/20 04:43:05;;;;;;;10.93;8.60;;;;;;;;;;777671;182;624093;-63
2021/10/20 04:45:31;;;;;;;9.80;7.53;;;;;;;;;;771550;182;919235;-63
2021/10/20 04:47:57;;;;;;;16.23;8.77;;;;;;;;;;771077;182;885485;-64
2021/10/20 04:50:23;;;;;;;15.13;9.00;;;;;;;;;;770454;181;615838;-64
2021/10/20 04:52:48;;;;;;;11.30;8.13;;;;;;;;;;769844;182;919100;-64
2021/10/20 04:55:14;;;;;;;11.10;7.80;;;;;;;;;;769104;181;919690;-63
2021/10/20 04:57:40;;;;;;;15.23;12.60;;;;;;;;;;767536;182;923177;-63
2021/10/20 05:00:07;;;;;;;14.80;10.43;;;;;;;;;;774346;182;918944;-65
2021/10/20 05:02:36;;;;;;;16.80;9.70;;;;;;;;;;768227;182;919452;-63
2021/10/20 05:05:02;;;;;;;17.43;8.60;;;;;;;;;;769526;182;919819;-65
2021/10/20 05:07:28;;;;;;;12.40;8.97;;;;;;;;;;771611;182;1025072;-64
2021/10/20 05:09:54;;;;;;;11.17;9.97;;;;;;;;;;767743;182;920186;-65
2021/10/20 05:12:19;;;;;;;12.03;8.60;;;;;;;;;;770290;182;918148;-65
2021/10/20 05:14:45;;;;;;;13.10;7.80;;;;;;;;;;767126;182;1015739;-64
2021/10/20 05:17:11;;;;;;;12.23;9.47;;;;;;;;;;776631;180;889758;-64
2021/10/20 05:19:37;;;;;;;10.60;8.57;;;;;;;;;;767513;182;912938;-65
2021/10/20 05:22:03;;;;;;;15.10;9.10;;;;;;;;;;773535;182;647053;-64
2021/10/20 05:24:29;;;;;;;14.87;10.10;;;;;;;;;;776086;182;636543;-65
2021/10/20 05:26:56;;;;;;;13.23;10.70;;;;;;;;;;769987;182;918941;-64
2021/10/20 05:29:21;;;;;;;13.20;10.37;;;;;;;;;;766925;182;925643;-65
2021/10/20 05:31:47;;;;;;;21.35;10.38;;;;;;;;;;773388;182;919323;-64
2021/10/20 05:34:13;;;;;;;14.43;9.97;;;;;;;;;;769002;182;923164;-65
2021/10/20 05:36:39;;;;;;;18.60;12.23;;;;;;;;;;772528;182;633170;-65
2021/10/20 05:39:06;;;;;;;16.75;11.93;;;;;;;;;;774197;182;633840;-63
2021/10/20 05:41:31;;;;;;;15.23;11.33;;;;;;;;;;775857;182;671700;-63
2021/10/20 05:43:57;;;;;;;16.30;11.00;;;;;;;;;;767373;182;919666;-63
2021/10/20 05:46:23;;;;;;;15.00;9.83;;;;;;;;;;763959;182;963056;-67
2021/10/20 05:48:48;;;;;;;14.70;10.13;;;;;;;;;;773186;182;917597;-64
2021/10/20 05:51:14;;;;;;;21.52;13.90;;;;;;;;;;765746;181;923030;-64
2021/10/20 05:53:40;;;;;;;14.83;10.93;;;;;;;;;;766347;182;920429;-64
2021/10/20 05:56:06;;;;;;;21.63;10.50;;;;;;;;;;772971;182;943239;-63
2021/10/20 05:58:32;;;;;;;42.83;12.10;;;;;;;;;;767706;182;919230;-63
2021/10/20 06:00:58;;;;;;;17.57;11.27;;;;;;;;;;769547;182;919490;-64
2021/10/20 06:03:23;;;;;;;23.53;12.30;;;;;;;;;;772324;180;914541;-64
2021/10/20 06:05:49;;;;;;;135.10;27.77;;;;;;;;;;768562;181;917856;-64
2021/10/20 06:08:15;;;;;;;85.37;21.63;;;;;;;;;;770401;182;919900;-63
2021/10/20 06:10:41;;;;;;;31.17;10.33;;;;;;;;;;769159;182;939122;-63
2021/10/20 06:13:07;;;;;;;40.00;13.67;;;;;;;;;;774061;182;921318;-63
2021/10/20 06:15:33;;;;;;;68.57;15.83;;;;;;;;;;768286;181;919911;-64
2021/10/20 06:17:59;;;;;;;44.28;14.75;;;;;;;;;;764873;182;1020073;-64
2021/10/20 06:20:24;;;;;;;28.90;12.97;;;;;;;;;;775856;182;912643;-64
2021/10/20 06:22:50;;;;;;;34.72;13.85;;;;;;;;;;769833;182;919434;-64
2021/10/20 06:25:16;;;;;;;31.70;11.70;;;;;;;;;;770243;182;873304;-63
2021/10/20 06:27:42;;;;;;;35.97;11.50;;;;;;;;;;777231;182;633389;-64
2021/10/20 06:30:09;;;;;;;22.07;13.63;;;;;;;;;;770280;182;872985;-65
2021/10/20 06:32:34;;;;;;;29.67;12.70;;;;;;;;;;770879;182;920091;-64
2021/10/20 06:35:01;;;;;;;24.57;11.20;;;;;;;;;;765481;182;983671;-63
2021/10/20 06:37:27;;;;;;;24.67;12.37;;;;;;;;;;776794;182;619008;-63
2021/10/20 06:39:52;;;;;;;16.23;11.10;;;;;;;;;;768718;182;919381;-64
2021/10/20 06:42:18;;;;;;;24.27;12.47;;;;;;;;;;768561;182;920073;-65
2021/10/20 06:44:44;;;;;;;18.10;13.10;;;;;;;;;;775722;182;926356;-63
2021/10/20 06:47:10;;;;;;;20.30;11.53;;;;;;;;;;767079;182;1019536;-64
2021/10/20 06:49:36;;;;;;;19.02;13.23;;;;;;;;;;767952;182;917286;-63
2021/10/20 06:52:01;;;;;;;20.17;12.97;;;;;;;;;;772253;182;916946;-64
2021/10/20 06:54:27;;;;;;;23.27;12.90;;;;;;;;;;767830;182;920620;-65
2021/10/20 06:56:53;;;;;;;15.03;9.57;;;;;;;;;;767149;182;920831;-64
2021/10/20 06:59:19;;;;;;;22.83;11.50;;;;;;;;;;768735;182;916701;-64
2021/10/20 07:01:45;;;;;;;18.08;12.57;;;;;;;;;;766794;182;915496;-63
2021/10/20 07:04:11;;;;;;;17.83;12.50;;;;;;;;;;767094;182;914713;-64
2021/10/20 07:06:38;;;;;;;18.17;13.17;;;;;;;;;;767569;182;919762;-64
2021/10/20 07:09:03;;;;;;;22.53;12.53;;;;;;;;;;774673;182;911303;-64
2021/10/20 07:11:29;;;;;;;23.47;13.87;;;;;;;;;;765502;182;918799;-63
2021/10/20 07:13:55;;;;;;;28.90;14.15;;;;;;;;;;768243;180;920159;-66
2021/10/20 07:16:21;;;;;;;21.77;15.60;;;;;;;;;;776891;181;919967;-63
2021/10/20 07:18:47;;;;;;;16.27;12.33;;;;;;;;;;772463;181;916660;-63
2021/10/20 07:21:12;;;;;;;23.30;14.27;;;;;;;;;;767470;182;918719;-63
2021/10/20 07:23:39;;;;;;;31.47;21.93;;;;;;;;;;770866;182;1123988;-61
2021/10/20 07:26:05;;;;;;;29.17;15.00;;;;;;;;;;769297;182;712592;-63
2021/10/20 07:28:31;;;;;;;23.43;15.27;;;;;;;;;;770229;182;919841;-63
2021/10/20 07:30:56;;;;;;;19.10;15.13;;;;;;;;;;769689;182;920036;-64
2021/10/20 07:33:22;;;;;;;23.97;17.07;;;;;;;;;;774639;182;919338;-64
2021/10/20 07:35:48;;;;;;;20.50;12.10;;;;;;;;;;769604;182;925084;-63
2021/10/20 07:38:14;;;;;;;31.37;17.87;;;;;;;;;;767857;182;913159;-62
2021/10/20 07:40:40;;;;;;;18.83;15.27;;;;;;;;;;772586;182;900225;-63
2021/10/20 07:43:06;;;;;;;19.40;14.90;;;;;;;;;;769253;182;920113;-63
2021/10/20 07:45:32;;;;;;;16.40;12.33;;;;;;;;;;768499;182;879051;-63
2021/10/20 07:47:58;;;;;;;18.13;13.27;;;;;;;;;;773463;182;919536;-63
2021/10/20 07:50:23;;;;;;;27.50;14.83;;;;;;;;;;770956;182;892891;-62
2021/10/20 07:52:49;;;;;;;14.43;11.30;;;;;;;;;;767490;182;949940;-63
2021/10/20 07:55:15;;;;;;;16.60;11.90;;;;;;;;;;769550;179;821907;-63
2021/10/20 07:57:41;;;;;;;19.77;11.90;;;;;;;;;;772833;182;894760;-63
2021/10/20 08:00:07;;;;;;;17.80;10.90;;;;;;;;;;767980;182;919901;-64
2021/10/20 08:02:33;;;;;;;17.53;11.97;;;;;;;;;;770689;182;918747;-65
2021/10/20 08:04:59;;;;;;;14.83;10.10;;;;;;;;;;768317;182;919269;-63
2021/10/20 08:07:25;;;;;;;14.83;11.80;;;;;;;;;;769528;182;919400;-64
2021/10/20 08:09:51;;;;;;;14.10;10.43;;;;;;;;;;765426;182;921080;-64
2021/10/20 08:12:19;;;;;;;14.23;10.50;;;;;;;;;;771437;182;919440;-64
2021/10/20 08:14:42;;;;;;;13.90;11.23;;;;;;;;;;769120;182;918601;-62
2021/10/20 08:17:08;;;;;;;13.93;10.50;;;;;;;;;;768857;182;920482;-64
2021/10/20 08:19:34;;;;;;;12.87;10.00;;;;;;;;;;767460;182;631646;-65
2021/10/20 08:22:00;;;;;;;18.47;12.57;;;;;;;;;;772576;182;919092;-67
2021/10/20 08:24:27;;;;;;;19.27;13.47;;;;;;;;;;772408;182;920006;-64
2021/10/20 08:26:52;;;;;;;18.60;11.63;;;;;;;;;;770539;181;919803;-61
2021/10/20 08:29:17;;;;;;;15.93;10.57;;;;;;;;;;774654;181;920063;-63
2021/10/20 08:31:43;;;;;;;17.10;12.47;;;;;;;;;;767043;182;915874;-63
2021/10/20 08:34:09;;;;;;;20.10;11.60;;;;;;;;;;765530;182;920158;-63
2021/10/20 08:36:35;;;;;;;17.70;10.90;;;;;;;;;;770302;182;919850;-63
2021/10/20 08:39:01;;;;;;;14.10;10.10;;;;;;;;;;771255;182;919500;-64
2021/10/20 08:41:27;;;;;;;14.07;9.87;;;;;;;;;;770676;182;873958;-63
2021/10/20 08:43:53;;;;;;;32.00;15.90;;;;;;;;;;764918;182;918437;-62
2021/10/20 08:46:23;;;;;;;25.73;12.20;;;;;;;;;;770089;182;880165;-63
2021/10/20 08:48:45;;;;;;;12.87;9.90;;;;;;;;;;765984;182;921609;-63
2021/10/20 08:51:11;;;;;;;14.47;10.23;;;;;;;;;;766929;180;938362;-63
2021/10/20 08:53:37;;;;;;;13.30;8.33;;;;;;;;;;773871;182;921607;-63
2021/10/20 08:56:03;;;;;;;13.70;9.70;;;;;;;;;;764881;182;1738267;-64
2021/10/20 08:58:29;;;;;;;14.63;10.20;;;;;;;;;;767675;182;1017483;-63
2021/10/20 09:00:55;;;;;;;15.40;10.57;;;;;;;;;;771789;182;922115;-63
2021/10/20 09:03:20;;;;;;;12.00;10.40;;;;;;;;;;766875;182;918287;-63
2021/10/20 09:05:46;;;;;;;12.40;9.60;;;;;;;;;;768847;182;919079;-64
2021/10/20 09:08:13;;;;;;;12.13;9.03;;;;;;;;;;772328;182;919318;-63
2021/10/20 09:10:38;;;;;;;11.40;9.13;;;;;;;;;;767423;182;919898;-63
2021/10/20 09:13:04;;;;;;;12.50;10.23;;;;;;;;;;765364;182;919516;-63
2021/10/20 09:15:30;;;;;;;9.70;7.87;;;;;;;;;;769816;182;919792;-63
2021/10/20 09:17:56;;;;;;;10.03;8.70;;;;;;;;;;772885;182;919184;-63
2021/10/20 09:20:21;;;;;;;10.90;8.87;;;;;;;;;;766226;182;922048;-64
2021/10/20 09:22:53;;;;;;;13.80;9.50;;;;;;;;;;765743;182;919404;-64
2021/10/20 09:25:17;;;;;;;11.00;9.23;;;;;;;;;;774892;182;919849;-64
2021/10/20 09:27:43;;;;;;;13.97;8.70;;;;;;;;;;763283;182;925248;-62
2021/10/20 09:30:09;;;;;;;12.82;10.40;;;;;;;;;;767439;182;919521;-62
2021/10/20 09:32:35;;;;;;;11.80;8.70;;;;;;;;;;765803;182;1389030;-64
2021/10/20 09:35:01;;;;;;;10.57;8.43;;;;;;;;;;770178;182;915978;-64
2021/10/20 09:37:27;;;;;;;13.80;9.23;;;;;;;;;;768813;180;921730;-64
2021/10/20 09:39:53;;;;;;;11.07;8.47;;;;;;;;;;770136;182;920852;-64
2021/10/20 09:42:19;;;;;;;12.13;7.60;;;;;;;;;;774438;182;919079;-66
2021/10/20 09:44:48;;;;;;;12.50;8.33;;;;;;;;;;768369;182;919642;-64
2021/10/20 09:47:14;;;;;;;15.63;8.57;;;;;;;;;;767503;182;920169;-63
2021/10/20 09:49:46;;;;;;;12.37;8.90;;;;;;;;;;774840;182;922672;-64
2021/10/20 09:52:11;;;;;;;9.93;7.77;;;;;;;;;;772272;182;923130;-64
2021/10/20 09:54:40;;;;;;;11.17;8.83;;;;;;;;;;765991;182;1004351;-63
2021/10/20 09:57:03;;;;;;;10.03;8.10;;;;;;;;;;768862;182;918944;-64
2021/10/20 09:59:29;;;;;;;11.87;8.10;;;;;;;;;;772155;182;942247;-64
2021/10/20 10:01:55;;;;;;;12.33;8.80;;;;;;;;;;768169;182;919554;-64
2021/10/20 10:04:21;;;;;;;11.55;8.82;;;;;;;;;;767652;182;924328;-64
2021/10/20 10:06:47;;;;;;;11.20;7.87;;;;;;;;;;774966;182;917671;-64
2021/10/20 10:09:12;;;;;;;11.83;7.73;;;;;;;;;;768148;182;920436;-64
2021/10/20 10:11:38;;;;;;;10.63;7.63;;;;;;;;;;768696;182;919924;-64
2021/10/20 10:14:04;;;;;;;13.17;8.83;;;;;;;;;;768701;182;920231;-63
2021/10/20 10:16:30;;;;;;;13.57;8.10;;;;;;;;;;762561;183;918641;-64
2021/10/20 10:18:56;;;;;;;8.33;7.17;;;;;;;;;;766464;182;920761;-64
2021/10/20 10:21:26;;;;;;;10.13;7.75;;;;;;;;;;767581;182;1020839;-64
2021/10/20 10:23:53;;;;;;;9.77;7.70;;;;;;;;;;770556;182;919136;-63
2021/10/20 10:26:19;;;;;;;12.15;8.30;;;;;;;;;;765209;182;921578;-65
2021/10/20 10:28:45;;;;;;;10.00;7.63;;;;;;;;;;765082;182;917586;-64
2021/10/20 10:31:11;;;;;;;11.43;6.93;;;;;;;;;;768184;182;948193;-63
2021/10/20 10:33:38;;;;;;;9.40;7.53;;;;;;;;;;766904;183;918810;-64
2021/10/20 10:36:05;;;;;;;10.93;7.23;;;;;;;;;;765450;182;918775;-64
2021/10/20 10:38:49;;;;;;;10.67;6.80;;;;;;;;;;767525;182;920517;-64
2021/10/20 10:41:16;;;;;;;13.13;7.20;;;;;;;;;;765644;182;919183;-65
2021/10/20 10:43:48;;;;;;;9.90;7.30;;;;;;;;;;774321;182;918443;-65
2021/10/20 10:46:14;;;;;;;8.53;7.00;;;;;;;;;;775654;182;641651;-65
2021/10/20 10:48:40;;;;;;;13.17;7.83;;;;;;;;;;769664;180;626362;-65
2021/10/20 10:51:06;;;;;;;9.40;7.10;;;;;;;;;;772141;180;728340;-65
2021/10/20 10:53:31;;;;;;;9.47;7.03;;;;;;;;;;777592;182;615744;-65
2021/10/20 10:56:00;;;;;;;8.95;7.22;;;;;;;;;;770056;182;920395;-65
2021/10/20 10:58:26;;;;;;;10.17;6.40;;;;;;;;;;770952;182;919336;-66
2021/10/20 11:00:52;;;;;;;10.27;7.60;;;;;;;;;;778731;182;637986;-65
2021/10/20 11:03:18;;;;;;;13.53;7.93;;;;;;;;;;772109;182;637297;-65
2021/10/20 11:05:46;;;;;;;8.50;6.20;;;;;;;;;;770566;182;692441;-65
2021/10/20 11:08:12;;;;;;;8.70;6.73;;;;;;;;;;773991;182;619284;-65
2021/10/20 11:10:38;;;;;;;8.83;6.33;;;;;;;;;;778283;182;657941;-65
2021/10/20 11:13:04;;;;;;;12.07;7.10;;;;;;;;;;773460;182;640572;-66
2021/10/20 11:15:30;;;;;;;10.90;7.77;;;;;;;;;;771129;182;639439;-66
2021/10/20 11:17:56;;;;;;;8.27;5.93;;;;;;;;;;777175;182;618718;-67
2021/10/20 11:20:21;;;;;;;9.87;6.90;;;;;;;;;;769880;182;645824;-66
2021/10/20 11:22:47;;;;;;;8.60;6.90;;;;;;;;;;771769;182;918276;-65
2021/10/20 11:25:13;;;;;;;10.40;6.20;;;;;;;;;;776643;182;623655;-67
2021/10/20 11:27:39;;;;;;;6.73;5.40;;;;;;;;;;769738;182;707169;-66
2021/10/20 11:30:05;;;;;;;8.27;6.53;;;;;;;;;;770901;182;920163;-65
2021/10/20 11:32:31;;;;;;;7.93;5.60;;;;;;;;;;769009;182;1018146;-65
2021/10/20 11:34:58;;;;;;;9.20;7.10;;;;;;;;;;765577;182;2145044;-66
2021/10/20 11:37:24;;;;;;;10.83;6.30;;;;;;;;;;769363;182;920349;-66
2021/10/20 11:39:50;;;;;;;9.53;6.70;;;;;;;;;;767471;182;879766;-64
2021/10/20 11:42:16;;;;;;;9.93;7.30;;;;;;;;;;776532;182;620804;-65
2021/10/20 11:44:41;;;;;;;10.23;5.90;;;;;;;;;;770501;182;655834;-66
2021/10/20 11:47:09;;;;;;;8.30;6.17;;;;;;;;;;772184;182;915265;-66
2021/10/20 11:49:35;;;;;;;8.97;6.80;;;;;;;;;;771175;182;920430;-67
2021/10/20 11:52:00;;;;;;;8.53;5.77;;;;;;;;;;770527;182;909817;-65
2021/10/20 11:54:28;;;;;;;6.50;5.40;;;;;;;;;;773325;182;629609;-65
2021/10/20 11:56:52;;;;;;;9.03;6.00;;;;;;;;;;769426;182;968909;-66
2021/10/20 11:59:18;;;;;;;8.97;6.87;;;;;;;;;;775396;182;1025920;-67
2021/10/20 12:01:44;;;;;;;10.73;6.47;;;;;;;;;;773176;180;639954;-65
2021/10/20 12:04:10;;;;;;;10.80;5.70;;;;;;;;;;773157;181;629818;-66
2021/10/20 12:06:36;;;;;;;9.33;5.83;;;;;;;;;;776342;182;631078;-66
2021/10/20 12:09:02;;;;;;;9.97;5.73;;;;;;;;;;770539;182;915503;-67
2021/10/20 12:11:27;;;;;;;11.80;7.73;;;;;;;;;;772005;182;627872;-67
2021/10/20 12:13:53;;;;;;;8.47;6.27;;;;;;;;;;776819;182;638596;-66
2021/10/20 12:16:20;;;;;;;11.27;6.17;;;;;;;;;;771457;182;915501;-67
2021/10/20 12:18:45;;;;;;;9.33;5.30;;;;;;;;;;772228;182;635590;-66
2021/10/20 12:21:11;;;;;;;8.20;5.60;;;;;;;;;;770556;182;631021;-66
2021/10/20 12:23:37;;;;;;;6.40;5.23;;;;;;;;;;774764;182;640615;-66
2021/10/20 12:26:03;;;;;;;6.83;5.80;;;;;;;;;;770485;182;645678;-66
2021/10/20 12:28:29;;;;;;;9.40;6.60;;;;;;;;;;772097;182;641870;-67
2021/10/20 12:30:54;;;;;;;7.23;5.70;;;;;;;;;;776557;182;659180;-66
2021/10/20 12:33:20;;;;;;;5.87;5.27;;;;;;;;;;766270;182;915631;-67
2021/10/20 12:35:46;;;;;;;8.00;5.67;;;;;;;;;;768146;182;915497;-66
2021/10/20 12:38:13;;;;;;;9.40;5.60;;;;;;;;;;774821;182;625231;-67
2021/10/20 12:40:38;;;;;;;7.33;5.30;;;;;;;;;;770396;182;905854;-67
2021/10/20 12:43:07;;;;;;;7.87;6.20;;;;;;;;;;768126;182;919122;-67
2021/10/20 12:45:30;;;;;;;8.60;5.80;;;;;;;;;;770249;182;667117;-66
2021/10/20 12:47:56;;;;;;;8.73;5.93;;;;;;;;;;771655;182;636280;-66
2021/10/20 12:50:22;;;;;;;6.93;5.93;;;;;;;;;;772321;182;632980;-67
2021/10/20 12:52:48;;;;;;;8.23;6.03;;;;;;;;;;772982;182;624087;-67
2021/10/20 12:55:14;;;;;;;8.10;5.27;;;;;;;;;;776147;182;646785;-69
2021/10/20 12:57:39;;;;;;;8.00;5.30;;;;;;;;;;772035;182;629156;-67
2021/10/20 13:00:10;;;;;;;8.50;5.73;;;;;;;;;;771981;182;633779;-67
2021/10/20 13:02:36;;;;;;;9.20;5.90;;;;;;;;;;772694;182;630259;-66
2021/10/20 13:05:01;;;;;;;7.33;5.60;;;;;;;;;;769056;182;619549;-70
2021/10/20 13:07:28;;;;;;;7.40;5.43;;;;;;;;;;771541;182;634612;-67
2021/10/20 13:09:53;;;;;;;8.70;6.13;;;;;;;;;;772338;182;631671;-68
2021/10/20 13:12:19;;;;;;;7.73;5.03;;;;;;;;;;775831;180;874285;-66
2021/10/20 13:14:45;;;;;;;11.90;6.30;;;;;;;;;;773239;181;624041;-66
2021/10/20 13:17:11;;;;;;;7.77;5.70;;;;;;;;;;769513;181;640189;-68
2021/10/20 13:19:36;;;;;;;8.60;5.77;;;;;;;;;;773050;182;626858;-68
2021/10/20 13:22:04;;;;;;;10.33;5.73;;;;;;;;;;770865;182;623353;-67
2021/10/20 13:24:28;;;;;;;8.03;5.63;;;;;;;;;;773720;182;630233;-67
2021/10/20 13:26:54;;;;;;;8.43;6.07;;;;;;;;;;776309;180;618765;-67
2021/10/20 13:29:20;;;;;;;9.83;5.40;;;;;;;;;;774637;182;631475;-67
2021/10/20 13:31:46;;;;;;;7.67;5.57;;;;;;;;;;773698;182;620731;-67
2021/10/20 13:34:13;;;;;;;10.60;6.03;;;;;;;;;;773198;182;626517;-67
2021/10/20 13:36:38;;;;;;;8.80;5.90;;;;;;;;;;775387;182;678980;-67
2021/10/20 13:39:04;;;;;;;11.73;6.07;;;;;;;;;;773583;182;632553;-67
2021/10/20 13:41:30;;;;;;;8.33;5.50;;;;;;;;;;773228;182;632697;-67
2021/10/20 13:43:56;;;;;;;6.90;5.40;;;;;;;;;;772818;182;627007;-67
2021/10/20 13:46:22;;;;;;;8.70;6.10;;;;;;;;;;774963;182;635527;-68
2021/10/20 13:48:48;;;;;;;8.50;5.80;;;;;;;;;;771310;182;673177;-67
2021/10/20 13:51:13;;;;;;;6.77;5.87;;;;;;;;;;776137;182;682487;-69
2021/10/20 13:53:39;;;;;;;7.60;5.40;;;;;;;;;;770685;182;632885;-67
2021/10/20 13:56:05;;;;;;;5.50;4.63;;;;;;;;;;768322;182;628432;-67
2021/10/20 13:58:31;;;;;;;6.87;4.77;;;;;;;;;;769925;182;633486;-67
2021/10/20 14:00:57;;;;;;;6.13;4.83;;;;;;;;;;777471;182;637231;-68
2021/10/20 14:03:23;;;;;;;16.77;6.83;;;;;;;;;;773526;182;629301;-68
2021/10/20 14:05:48;;;;;;;9.83;5.37;;;;;;;;;;769628;182;629585;-68
2021/10/20 14:08:14;;;;;;;7.00;5.37;;;;;;;;;;775007;182;650417;-67